YMML/MEL METAR and TAF weather

Enter ICAO airport designator
Station Type Date Time Source
YMML METAR 2020/08/05 16:30 UTC NOAA

YMML 051630Z 28007KT 9999 FEW022 BKN044 06/04 Q1019 NOSIG


Station Type Date Time Source
YMML Decoded METAR 2020/08/05 16:30 UTC NOAA

Melbourne Airport, Australia (YMML) 37-40S 144-50E 141M
Aug 05, 2020 - 12:30 PM EDT / 2020.08.05 1630 UTC
Wind: from the W (280 degrees) at 8 MPH (7 KT):0
Visibility: greater than 7 mile(s):0
Sky conditions: mostly cloudy
Temperature: 42 F (6 C)
Dew Point: 39 F (4 C)
Relative Humidity: 86%
Pressure (altimeter): 30.09 in. Hg (1019 hPa)
ob: YMML 051630Z 28007KT 9999 FEW022 BKN044 06/04 Q1019 NOSIG
cycle: 16

Station Type Date Time Source
YMML TAF 2020/08/05 12:33 UTC NOAA

TAF YMML 051111Z 0512/0618 25008KT 9999 -SHRA SCT030 BKN040
FM052200 22010KT 9999 -SHRA SCT020 BKN030
FM060600 16008KT 9999 NSW SCT040
FM061200 13006KT CAVOK INTER 0522/0603 5000 SHRA BKN015

Example: see airport list